Baltimore, Maryland
Traffic Map
Current Weather Conditions
Baltimore, Maryland
Overcast
Overcast

Feels Like: -2°
Wind Chill: -2° Ceiling: 9000
Heat Index: Visibility: 10mi
Dew Point: -7° Wind: 5mph
Humidity: 56% Direction: 30° (NNE)
Pressure: 30.01in Gusts: 0mph
Raw Report DataKBWI 262254Z 03004KT 10SM FEW080 OVC090 01/M07 A3001 RMK AO2 SLP164 T00061072
Traffic Incident Summary
Active as of:
Severity:
Category:
InformationThere was an issue retrieving the traffic information for this location. Please try a different location or try again shortly.
Advertisements
Track Severe Weather on mobile